Airfield :







YOU CAN JOIN US ON...

 
LOGIN :

Register | Disclaimer

   EN    FR    IT 

 









Legend :    VFR   Marginal VFR   IFR   Intensive IFR   Very Intensive IFR
Visi :
Ceiling :
>= 8 km
>= 3000ft
5 to 8 km
1000 to 3000 ft
1500m to 5 km
500 to 1000 ft
800 to 1500m
200 to 500 ft
< 800m
< 200 ft
Symbols :   Thunderstorms  Fog  Heavy snow  Heavy precipitations  Wind > 20 kt






- Airport Elevation : 334 ft
- AIRPORT CLOSED.


KCWN - White Mountain

CURRENT METAR :
  • 192055Z AUTO 05004KT 10SM BKN110 BKN130 27/07 A3032 RMK AO2 LTG DSNT S SLP072 T02680073 58003 $

EXPIRED METARs :
  • 191955Z AUTO 30008KT 10SM VCTS BKN090 OVC110 23/07 A3033 RMK AO2 TSB1858E32 SLP081 T02280073 $
  • 191932Z AUTO 28014G21KT 10SM VCTS SCT075 OVC090 23/07 A3035 RMK AO2 TSB1858E32 SLP088 $
  • 191858Z AUTO 02004KT 10SM TS SCT080 OVC100 26/11 A3033 RMK AO2 TSB58 SLP075 $
  • 191755Z AUTO 10003KT 10SM BKN150 27/11 A3033 RMK AO2 LTG DSNT N SLP072 T02650110 10288 20206 50002 $
  • 191655Z AUTO 14005KT 9SM CLR 27/13 A3033 RMK AO2 LTG DSNT NE SLP072 T02720132 $

TAF N/A



MET'MAP, your aeronautical weather chart ! - Copyright ORBIFLY December 2007 - Disclaimer

ORBIFLY MET'MAP TEAM :

Programming & Development : Alexandra Zaïnal
Original concept : Baudouin d'Aumeries
Technical & hardware support : Manuel Goepfert
Assistance : Marc-Olivier Méhu




SOURCES & CREDITS :

   NOAA